sensor_id;sensor_type;location;lat;lon;timestamp;pressure;altitude;pressure_sealevel;temperature;humidity
21359;BME280;13506;50.852;20.632;2022-10-28T00:01:02;99424.84;;;10.96;100.00
21359;BME280;13506;50.852;20.632;2022-10-28T00:03:36;99423.72;;;11.02;100.00
21359;BME280;13506;50.852;20.632;2022-10-28T00:06:06;99421.50;;;10.93;99.87
21359;BME280;13506;50.852;20.632;2022-10-28T00:08:35;99421.06;;;11.04;100.00
21359;BME280;13506;50.852;20.632;2022-10-28T00:11:07;99418.91;;;10.93;100.00
21359;BME280;13506;50.852;20.632;2022-10-28T00:13:36;99418.44;;;10.83;100.00
21359;BME280;13506;50.852;20.632;2022-10-28T00:16:09;99415.72;;;10.86;100.00
21359;BME280;13506;50.852;20.632;2022-10-28T00:18:37;99411.16;;;10.91;100.00
21359;BME280;13506;50.852;20.632;2022-10-28T00:21:07;99413.50;;;10.97;100.00
21359;BME280;13506;50.852;20.632;2022-10-28T00:23:36;99417.16;;;10.93;100.00
21359;BME280;13506;50.852;20.632;2022-10-28T00:26:08;99404.44;;;10.86;100.00
21359;BME280;13506;50.852;20.632;2022-10-28T00:28:40;99400.88;;;10.88;100.00
21359;BME280;13506;50.852;20.632;2022-10-28T00:31:10;99410.25;;;10.92;100.00
21359;BME280;13506;50.852;20.632;2022-10-28T00:33:39;99405.09;;;10.91;100.00
21359;BME280;13506;50.852;20.632;2022-10-28T00:36:11;99394.44;;;10.97;100.00
21359;BME280;13506;50.852;20.632;2022-10-28T00:38:41;99388.31;;;10.98;100.00
21359;BME280;13506;50.852;20.632;2022-10-28T00:41:12;99383.88;;;11.00;100.00
21359;BME280;13506;50.852;20.632;2022-10-28T00:43:42;99381.78;;;11.08;100.00
21359;BME280;13506;50.852;20.632;2022-10-28T00:46:21;99372.16;;;11.10;100.00
21359;BME280;13506;50.852;20.632;2022-10-28T00:48:53;99381.78;;;11.08;100.00
21359;BME280;13506;50.852;20.632;2022-10-28T00:51:22;99368.56;;;11.13;100.00
21359;BME280;13506;50.852;20.632;2022-10-28T00:53:52;99376.25;;;11.16;100.00
21359;BME280;13506;50.852;20.632;2022-10-28T00:56:24;99371.63;;;11.23;99.71
21359;BME280;13506;50.852;20.632;2022-10-28T00:58:56;99369.22;;;11.18;99.67
21359;BME280;13506;50.852;20.632;2022-10-28T01:01:25;99368.88;;;11.26;99.48
21359;BME280;13506;50.852;20.632;2022-10-28T01:03:55;99362.81;;;11.25;99.13
21359;BME280;13506;50.852;20.632;2022-10-28T01:06:24;99359.59;;;11.20;98.59
21359;BME280;13506;50.852;20.632;2022-10-28T01:08:52;99362.81;;;11.25;98.64
21359;BME280;13506;50.852;20.632;2022-10-28T01:11:39;99354.22;;;11.23;98.74
21359;BME280;13506;50.852;20.632;2022-10-28T01:14:31;99361.41;;;11.18;98.37
21359;BME280;13506;50.852;20.632;2022-10-28T01:17:27;99352.25;;;11.09;98.97
21359;BME280;13506;50.852;20.632;2022-10-28T01:20:37;99355.53;;;11.13;99.04
21359;BME280;13506;50.852;20.632;2022-10-28T01:23:17;99349.81;;;11.05;100.00
21359;BME280;13506;50.852;20.632;2022-10-28T01:26:18;99337.59;;;11.07;99.71
21359;BME280;13506;50.852;20.632;2022-10-28T01:29:31;99339.34;;;11.06;100.00
21359;BME280;13506;50.852;20.632;2022-10-28T01:32:12;99348.09;;;11.05;100.00
21359;BME280;13506;50.852;20.632;2022-10-28T01:34:51;99339.97;;;10.92;100.00
21359;BME280;13506;50.852;20.632;2022-10-28T01:37:32;99339.50;;;10.62;100.00
21359;BME280;13506;50.852;20.632;2022-10-28T01:40:07;99341.16;;;10.65;100.00
21359;BME280;13506;50.852;20.632;2022-10-28T01:42:42;99342.84;;;10.66;100.00
21359;BME280;13506;50.852;20.632;2022-10-28T01:45:17;99330.91;;;10.60;100.00
21359;BME280;13506;50.852;20.632;2022-10-28T01:47:55;99337.78;;;10.63;100.00
21359;BME280;13506;50.852;20.632;2022-10-28T01:50:29;99336.00;;;10.63;100.00
21359;BME280;13506;50.852;20.632;2022-10-28T01:53:02;99320.91;;;10.71;100.00
21359;BME280;13506;50.852;20.632;2022-10-28T01:55:36;99331.25;;;10.73;100.00
21359;BME280;13506;50.852;20.632;2022-10-28T01:58:07;99318.56;;;10.65;100.00
21359;BME280;13506;50.852;20.632;2022-10-28T02:00:37;99330.53;;;10.69;100.00
21359;BME280;13506;50.852;20.632;2022-10-28T02:03:08;99326.81;;;10.75;100.00
21359;BME280;13506;50.852;20.632;2022-10-28T02:05:42;99323.31;;;10.76;100.00
21359;BME280;13506;50.852;20.632;2022-10-28T02:08:43;99321.56;;;10.76;100.00
21359;BME280;13506;50.852;20.632;2022-10-28T02:11:39;99326.25;;;10.68;100.00
21359;BME280;13506;50.852;20.632;2022-10-28T02:14:30;99318.13;;;10.76;100.00
21359;BME280;13506;50.852;20.632;2022-10-28T02:17:06;99323.56;;;10.70;100.00
21359;BME280;13506;50.852;20.632;2022-10-28T02:19:46;99316.97;;;10.63;100.00
21359;BME280;13506;50.852;20.632;2022-10-28T02:22:21;99306.66;;;10.59;100.00
21359;BME280;13506;50.852;20.632;2022-10-28T02:24:58;99309.72;;;10.49;100.00
21359;BME280;13506;50.852;20.632;2022-10-28T02:27:35;99320.03;;;10.30;100.00
21359;BME280;13506;50.852;20.632;2022-10-28T02:30:08;99320.19;;;10.47;100.00
21359;BME280;13506;50.852;20.632;2022-10-28T02:32:42;99319.97;;;10.52;100.00
21359;BME280;13506;50.852;20.632;2022-10-28T02:35:16;99313.06;;;10.52;100.00
21359;BME280;13506;50.852;20.632;2022-10-28T02:37:48;99317.00;;;10.61;100.00
21359;BME280;13506;50.852;20.632;2022-10-28T02:40:23;99310.03;;;10.62;100.00
21359;BME280;13506;50.852;20.632;2022-10-28T02:42:56;99304.72;;;10.65;100.00
21359;BME280;13506;50.852;20.632;2022-10-28T02:45:28;99310.63;;;10.68;100.00
21359;BME280;13506;50.852;20.632;2022-10-28T02:48:03;99311.22;;;10.54;100.00
21359;BME280;13506;50.852;20.632;2022-10-28T02:50:37;99304.03;;;10.39;100.00
21359;BME280;13506;50.852;20.632;2022-10-28T02:53:13;99299.31;;;10.49;100.00
21359;BME280;13506;50.852;20.632;2022-10-28T02:55:45;99299.16;;;10.52;100.00
21359;BME280;13506;50.852;20.632;2022-10-28T02:58:15;99297.97;;;10.61;100.00
21359;BME280;13506;50.852;20.632;2022-10-28T03:00:44;99292.88;;;10.57;100.00
21359;BME280;13506;50.852;20.632;2022-10-28T03:03:12;99297.81;;;10.64;100.00
21359;BME280;13506;50.852;20.632;2022-10-28T03:05:41;99291.88;;;10.60;100.00
21359;BME280;13506;50.852;20.632;2022-10-28T03:08:09;99312.00;;;10.56;100.00
21359;BME280;13506;50.852;20.632;2022-10-28T03:10:36;99301.19;;;10.66;100.00
21359;BME280;13506;50.852;20.632;2022-10-28T03:13:04;99294.44;;;10.62;100.00
21359;BME280;13506;50.852;20.632;2022-10-28T03:15:33;99298.53;;;10.67;100.00
21359;BME280;13506;50.852;20.632;2022-10-28T03:18:01;99294.16;;;10.68;100.00
21359;BME280;13506;50.852;20.632;2022-10-28T03:20:29;99297.66;;;10.67;100.00
21359;BME280;13506;50.852;20.632;2022-10-28T03:22:58;99299.22;;;10.71;100.00
21359;BME280;13506;50.852;20.632;2022-10-28T03:25:25;99298.38;;;10.70;100.00
21359;BME280;13506;50.852;20.632;2022-10-28T03:27:53;99297.22;;;10.77;100.00
21359;BME280;13506;50.852;20.632;2022-10-28T03:30:21;99296.56;;;10.72;98.81
21359;BME280;13506;50.852;20.632;2022-10-28T03:32:48;99290.78;;;10.66;100.00
21359;BME280;13506;50.852;20.632;2022-10-28T03:35:16;99284.75;;;10.65;100.00
21359;BME280;13506;50.852;20.632;2022-10-28T03:37:44;99290.72;;;10.67;100.00
21359;BME280;13506;50.852;20.632;2022-10-28T03:40:13;99284.47;;;10.71;100.00
21359;BME280;13506;50.852;20.632;2022-10-28T03:42:42;99290.53;;;10.72;100.00
21359;BME280;13506;50.852;20.632;2022-10-28T03:45:10;99281.53;;;10.79;100.00
21359;BME280;13506;50.852;20.632;2022-10-28T03:47:39;99280.06;;;10.73;99.97
21359;BME280;13506;50.852;20.632;2022-10-28T03:50:07;99285.91;;;10.78;100.00
21359;BME280;13506;50.852;20.632;2022-10-28T03:52:35;99280.69;;;10.78;100.00
21359;BME280;13506;50.852;20.632;2022-10-28T03:55:04;99279.78;;;10.79;100.00
21359;BME280;13506;50.852;20.632;2022-10-28T03:57:33;99274.66;;;10.78;100.00
21359;BME280;13506;50.852;20.632;2022-10-28T04:00:01;99275.28;;;10.83;100.00
21359;BME280;13506;50.852;20.632;2022-10-28T04:02:38;99277.75;;;10.86;100.00
21359;BME280;13506;50.852;20.632;2022-10-28T04:05:06;99278.59;;;10.87;99.95
21359;BME280;13506;50.852;20.632;2022-10-28T04:07:35;99282.81;;;10.89;100.00
21359;BME280;13506;50.852;20.632;2022-10-28T04:10:03;99280.88;;;10.94;100.00
21359;BME280;13506;50.852;20.632;2022-10-28T04:12:32;99265.31;;;10.93;100.00
21359;BME280;13506;50.852;20.632;2022-10-28T04:15:00;99280.72;;;10.97;100.00
21359;BME280;13506;50.852;20.632;2022-10-28T04:17:28;99282.28;;;11.02;100.00
21359;BME280;13506;50.852;20.632;2022-10-28T04:19:56;99284.56;;;11.09;100.00
21359;BME280;13506;50.852;20.632;2022-10-28T04:22:24;99287.22;;;11.08;100.00
21359;BME280;13506;50.852;20.632;2022-10-28T04:24:51;99287.00;;;11.12;100.00
21359;BME280;13506;50.852;20.632;2022-10-28T04:27:20;99291.88;;;11.20;100.00
21359;BME280;13506;50.852;20.632;2022-10-28T04:29:49;99274.47;;;11.20;100.00
21359;BME280;13506;50.852;20.632;2022-10-28T04:32:17;99269.50;;;11.16;100.00
21359;BME280;13506;50.852;20.632;2022-10-28T04:34:45;99256.38;;;10.79;100.00
21359;BME280;13506;50.852;20.632;2022-10-28T04:37:13;99260.13;;;10.33;100.00
21359;BME280;13506;50.852;20.632;2022-10-28T04:39:41;99256.84;;;10.48;100.00
21359;BME280;13506;50.852;20.632;2022-10-28T04:42:08;99258.78;;;10.64;100.00
21359;BME280;13506;50.852;20.632;2022-10-28T04:44:36;99253.81;;;10.78;100.00
21359;BME280;13506;50.852;20.632;2022-10-28T04:47:06;99240.44;;;10.86;100.00
21359;BME280;13506;50.852;20.632;2022-10-28T04:49:33;99243.53;;;10.75;100.00
21359;BME280;13506;50.852;20.632;2022-10-28T04:52:01;99246.25;;;10.53;100.00
21359;BME280;13506;50.852;20.632;2022-10-28T04:54:28;99243.84;;;10.48;100.00
21359;BME280;13506;50.852;20.632;2022-10-28T04:56:56;99235.13;;;10.49;100.00
21359;BME280;13506;50.852;20.632;2022-10-28T04:59:24;99243.94;;;10.66;100.00
21359;BME280;13506;50.852;20.632;2022-10-28T05:01:52;99251.22;;;10.78;100.00
21359;BME280;13506;50.852;20.632;2022-10-28T05:04:21;99239.69;;;10.84;100.00
21359;BME280;13506;50.852;20.632;2022-10-28T05:06:49;99249.69;;;10.93;100.00
21359;BME280;13506;50.852;20.632;2022-10-28T05:09:17;99243.16;;;11.03;100.00
21359;BME280;13506;50.852;20.632;2022-10-28T05:11:45;99254.25;;;11.07;100.00
21359;BME280;13506;50.852;20.632;2022-10-28T05:14:13;99245.34;;;11.12;100.00
21359;BME280;13506;50.852;20.632;2022-10-28T05:16:40;99253.03;;;11.15;100.00
21359;BME280;13506;50.852;20.632;2022-10-28T05:19:08;99246.88;;;10.97;100.00
21359;BME280;13506;50.852;20.632;2022-10-28T05:21:37;99260.50;;;10.84;100.00
21359;BME280;13506;50.852;20.632;2022-10-28T05:24:05;99248.97;;;10.89;100.00
21359;BME280;13506;50.852;20.632;2022-10-28T05:26:33;99259.44;;;10.88;100.00
21359;BME280;13506;50.852;20.632;2022-10-28T05:29:01;99259.38;;;10.89;100.00
21359;BME280;13506;50.852;20.632;2022-10-28T05:31:29;99259.59;;;10.85;100.00
21359;BME280;13506;50.852;20.632;2022-10-28T05:33:56;99249.47;;;10.78;100.00
21359;BME280;13506;50.852;20.632;2022-10-28T05:36:24;99238.59;;;10.29;100.00
21359;BME280;13506;50.852;20.632;2022-10-28T05:38:53;99231.00;;;10.23;100.00
21359;BME280;13506;50.852;20.632;2022-10-28T05:41:21;99238.09;;;9.77;100.00
21359;BME280;13506;50.852;20.632;2022-10-28T05:43:49;99241.97;;;9.89;100.00
21359;BME280;13506;50.852;20.632;2022-10-28T05:46:18;99242.16;;;9.84;100.00
21359;BME280;13506;50.852;20.632;2022-10-28T05:48:47;99252.63;;;9.83;100.00
21359;BME280;13506;50.852;20.632;2022-10-28T05:51:15;99236.78;;;10.09;100.00
21359;BME280;13506;50.852;20.632;2022-10-28T05:53:43;99235.63;;;10.16;100.00
21359;BME280;13506;50.852;20.632;2022-10-28T05:56:12;99253.00;;;10.36;100.00
21359;BME280;13506;50.852;20.632;2022-10-28T05:58:40;99253.31;;;10.49;100.00
21359;BME280;13506;50.852;20.632;2022-10-28T06:01:08;99247.16;;;10.31;100.00
21359;BME280;13506;50.852;20.632;2022-10-28T06:03:36;99235.13;;;10.49;100.00
21359;BME280;13506;50.852;20.632;2022-10-28T06:06:04;99236.16;;;10.45;100.00
21359;BME280;13506;50.852;20.632;2022-10-28T06:08:32;99235.63;;;10.37;100.00
21359;BME280;13506;50.852;20.632;2022-10-28T06:11:00;99239.63;;;10.46;100.00
21359;BME280;13506;50.852;20.632;2022-10-28T06:13:29;99235.03;;;10.71;100.00
21359;BME280;13506;50.852;20.632;2022-10-28T06:15:57;99240.13;;;10.93;100.00
21359;BME280;13506;50.852;20.632;2022-10-28T06:18:25;99232.66;;;11.05;100.00
21359;BME280;13506;50.852;20.632;2022-10-28T06:20:54;99224.72;;;11.08;100.00
21359;BME280;13506;50.852;20.632;2022-10-28T06:23:22;99228.88;;;11.12;100.00
21359;BME280;13506;50.852;20.632;2022-10-28T06:25:55;99241.59;;;11.37;100.00
21359;BME280;13506;50.852;20.632;2022-10-28T06:28:23;99237.59;;;11.66;100.00
21359;BME280;13506;50.852;20.632;2022-10-28T06:30:52;99229.63;;;12.06;100.00
21359;BME280;13506;50.852;20.632;2022-10-28T06:33:20;99216.34;;;12.45;100.00
21359;BME280;13506;50.852;20.632;2022-10-28T06:35:48;99238.97;;;13.11;100.00
21359;BME280;13506;50.852;20.632;2022-10-28T06:38:16;99221.19;;;13.96;99.09
21359;BME280;13506;50.852;20.632;2022-10-28T06:40:44;99232.09;;;14.92;99.43
21359;BME280;13506;50.852;20.632;2022-10-28T06:43:11;99240.03;;;15.75;96.14
21359;BME280;13506;50.852;20.632;2022-10-28T06:45:40;99231.31;;;16.65;91.31
21359;BME280;13506;50.852;20.632;2022-10-28T06:48:09;99226.13;;;17.52;87.60
21359;BME280;13506;50.852;20.632;2022-10-28T06:50:37;99223.94;;;18.29;83.26
21359;BME280;13506;50.852;20.632;2022-10-28T06:53:05;99218.59;;;19.21;79.49
21359;BME280;13506;50.852;20.632;2022-10-28T06:55:33;99220.66;;;20.26;75.76
21359;BME280;13506;50.852;20.632;2022-10-28T06:58:01;99229.66;;;21.37;71.72
21359;BME280;13506;50.852;20.632;2022-10-28T07:00:36;99223.72;;;22.79;66.68
21359;BME280;13506;50.852;20.632;2022-10-28T07:03:05;99225.31;;;23.55;60.42
21359;BME280;13506;50.852;20.632;2022-10-28T07:05:34;99231.97;;;24.49;58.89
21359;BME280;13506;50.852;20.632;2022-10-28T07:08:02;99225.72;;;25.27;55.09
21359;BME280;13506;50.852;20.632;2022-10-28T07:10:30;99228.78;;;25.40;51.93
21359;BME280;13506;50.852;20.632;2022-10-28T07:12:58;99225.47;;;25.63;52.15
21359;BME280;13506;50.852;20.632;2022-10-28T07:15:25;99220.56;;;25.33;50.44
21359;BME280;13506;50.852;20.632;2022-10-28T07:17:54;99210.00;;;25.74;49.89
21359;BME280;13506;50.852;20.632;2022-10-28T07:20:24;99216.63;;;26.69;49.67
21359;BME280;13506;50.852;20.632;2022-10-28T07:22:58;99223.91;;;27.85;47.75
21359;BME280;13506;50.852;20.632;2022-10-28T07:25:26;99217.59;;;29.21;45.95
21359;BME280;13506;50.852;20.632;2022-10-28T07:27:56;99229.34;;;30.50;40.71
21359;BME280;13506;50.852;20.632;2022-10-28T07:30:24;99233.91;;;31.87;40.62
21359;BME280;13506;50.852;20.632;2022-10-28T07:32:52;99217.66;;;33.07;37.66
21359;BME280;13506;50.852;20.632;2022-10-28T07:35:20;99208.94;;;34.07;37.01
21359;BME280;13506;50.852;20.632;2022-10-28T07:37:48;99206.31;;;35.06;35.24
21359;BME280;13506;50.852;20.632;2022-10-28T07:40:18;99205.00;;;36.11;34.51
21359;BME280;13506;50.852;20.632;2022-10-28T07:42:46;99219.41;;;36.82;32.45
21359;BME280;13506;50.852;20.632;2022-10-28T07:45:14;99214.59;;;37.54;31.21
21359;BME280;13506;50.852;20.632;2022-10-28T07:47:42;99222.41;;;38.29;30.84
21359;BME280;13506;50.852;20.632;2022-10-28T07:50:11;99224.97;;;38.75;29.83
21359;BME280;13506;50.852;20.632;2022-10-28T07:52:39;99221.81;;;38.83;29.42
21359;BME280;13506;50.852;20.632;2022-10-28T07:55:07;99224.53;;;38.83;29.83
21359;BME280;13506;50.852;20.632;2022-10-28T07:57:37;99222.78;;;39.16;29.71
21359;BME280;13506;50.852;20.632;2022-10-28T08:00:06;99223.09;;;39.42;29.17
21359;BME280;13506;50.852;20.632;2022-10-28T08:02:38;99212.38;;;39.62;28.56
21359;BME280;13506;50.852;20.632;2022-10-28T08:05:06;99211.69;;;39.77;28.67
21359;BME280;13506;50.852;20.632;2022-10-28T08:07:34;99208.25;;;39.87;27.29
21359;BME280;13506;50.852;20.632;2022-10-28T08:10:02;99209.38;;;39.91;26.95
21359;BME280;13506;50.852;20.632;2022-10-28T08:12:30;99203.00;;;40.13;26.84
21359;BME280;13506;50.852;20.632;2022-10-28T08:14:59;99200.72;;;39.99;26.11
21359;BME280;13506;50.852;20.632;2022-10-28T08:17:28;99200.16;;;39.65;26.28
21359;BME280;13506;50.852;20.632;2022-10-28T08:19:55;99213.59;;;38.78;26.63
21359;BME280;13506;50.852;20.632;2022-10-28T08:22:23;99220.13;;;38.04;26.77
21359;BME280;13506;50.852;20.632;2022-10-28T08:24:51;99214.84;;;37.23;28.18
21359;BME280;13506;50.852;20.632;2022-10-28T08:27:19;99217.78;;;36.34;29.14
21359;BME280;13506;50.852;20.632;2022-10-28T08:29:46;99220.94;;;36.07;29.42
21359;BME280;13506;50.852;20.632;2022-10-28T08:32:16;99217.84;;;35.92;30.68
21359;BME280;13506;50.852;20.632;2022-10-28T08:34:43;99211.75;;;35.24;30.56
21359;BME280;13506;50.852;20.632;2022-10-28T08:37:11;99213.25;;;34.83;30.70
21359;BME280;13506;50.852;20.632;2022-10-28T08:39:41;99208.88;;;34.64;31.06
21359;BME280;13506;50.852;20.632;2022-10-28T08:42:34;99214.03;;;34.47;31.50
21359;BME280;13506;50.852;20.632;2022-10-28T08:45:19;99224.91;;;34.15;31.38
21359;BME280;13506;50.852;20.632;2022-10-28T08:48:04;99212.28;;;33.45;32.50
21359;BME280;13506;50.852;20.632;2022-10-28T08:50:43;99216.06;;;32.66;33.19
21359;BME280;13506;50.852;20.632;2022-10-28T08:53:18;99211.78;;;32.18;34.60
21359;BME280;13506;50.852;20.632;2022-10-28T08:55:49;99218.34;;;31.69;35.17
21359;BME280;13506;50.852;20.632;2022-10-28T08:58:21;99217.75;;;31.12;36.04
21359;BME280;13506;50.852;20.632;2022-10-28T09:00:55;99206.84;;;30.51;37.17
21359;BME280;13506;50.852;20.632;2022-10-28T09:03:28;99206.69;;;30.31;38.09
21359;BME280;13506;50.852;20.632;2022-10-28T09:06:01;99202.31;;;30.23;38.39
21359;BME280;13506;50.852;20.632;2022-10-28T09:08:33;99195.16;;;30.30;38.81
21359;BME280;13506;50.852;20.632;2022-10-28T09:11:15;99197.03;;;30.36;37.82
21359;BME280;13506;50.852;20.632;2022-10-28T09:14:00;99188.44;;;30.48;37.48
21359;BME280;13506;50.852;20.632;2022-10-28T09:16:39;99196.63;;;30.39;38.08
21359;BME280;13506;50.852;20.632;2022-10-28T09:19:28;99189.31;;;30.55;37.66
21359;BME280;13506;50.852;20.632;2022-10-28T09:22:15;99194.06;;;30.53;37.56
21359;BME280;13506;50.852;20.632;2022-10-28T09:24:54;99195.97;;;30.59;37.39
21359;BME280;13506;50.852;20.632;2022-10-28T09:27:47;99187.03;;;30.87;37.76
21359;BME280;13506;50.852;20.632;2022-10-28T09:30:29;99179.84;;;31.00;37.41
21359;BME280;13506;50.852;20.632;2022-10-28T09:33:16;99176.16;;;31.01;37.97
21359;BME280;13506;50.852;20.632;2022-10-28T09:35:47;99183.78;;;30.98;37.02
21359;BME280;13506;50.852;20.632;2022-10-28T09:38:26;99187.13;;;30.37;37.58
21359;BME280;13506;50.852;20.632;2022-10-28T09:40:57;99182.88;;;29.71;38.82
21359;BME280;13506;50.852;20.632;2022-10-28T09:43:31;99194.72;;;29.40;40.30
21359;BME280;13506;50.852;20.632;2022-10-28T09:46:09;99185.22;;;29.23;40.61
21359;BME280;13506;50.852;20.632;2022-10-28T09:48:42;99193.47;;;29.21;40.93
21359;BME280;13506;50.852;20.632;2022-10-28T09:51:22;99193.22;;;29.38;40.47
21359;BME280;13506;50.852;20.632;2022-10-28T09:53:54;99185.50;;;29.50;40.03
21359;BME280;13506;50.852;20.632;2022-10-28T09:56:23;99176.25;;;29.52;40.73
21359;BME280;13506;50.852;20.632;2022-10-28T09:58:53;99181.25;;;29.55;40.15
21359;BME280;13506;50.852;20.632;2022-10-28T10:01:21;99182.66;;;29.51;40.24
21359;BME280;13506;50.852;20.632;2022-10-28T10:03:50;99187.84;;;29.53;40.22
21359;BME280;13506;50.852;20.632;2022-10-28T10:06:23;99183.00;;;29.27;40.90
21359;BME280;13506;50.852;20.632;2022-10-28T10:08:54;99182.47;;;29.16;40.95
21359;BME280;13506;50.852;20.632;2022-10-28T10:11:29;99175.16;;;29.10;41.65
21359;BME280;13506;50.852;20.632;2022-10-28T10:14:03;99176.28;;;29.16;42.22
21359;BME280;13506;50.852;20.632;2022-10-28T10:16:37;99172.91;;;29.29;41.62
21359;BME280;13506;50.852;20.632;2022-10-28T10:19:09;99171.09;;;29.14;40.98
21359;BME280;13506;50.852;20.632;2022-10-28T10:21:43;99169.28;;;29.00;41.41
21359;BME280;13506;50.852;20.632;2022-10-28T10:24:29;99159.22;;;28.87;41.91
21359;BME280;13506;50.852;20.632;2022-10-28T10:27:00;99154.91;;;28.71;42.13
21359;BME280;13506;50.852;20.632;2022-10-28T10:29:29;99155.34;;;28.45;42.48
21359;BME280;13506;50.852;20.632;2022-10-28T10:32:14;99164.03;;;28.32;43.46
21359;BME280;13506;50.852;20.632;2022-10-28T10:34:45;99156.50;;;28.28;43.31
21359;BME280;13506;50.852;20.632;2022-10-28T10:37:21;99146.75;;;28.20;43.28
21359;BME280;13506;50.852;20.632;2022-10-28T10:40:15;99140.81;;;27.49;45.05
21359;BME280;13506;50.852;20.632;2022-10-28T10:42:44;99144.25;;;27.03;45.66
21359;BME280;13506;50.852;20.632;2022-10-28T10:45:24;99144.94;;;26.49;47.03
21359;BME280;13506;50.852;20.632;2022-10-28T10:48:12;99149.88;;;25.72;48.89
21359;BME280;13506;50.852;20.632;2022-10-28T10:50:42;99152.47;;;25.31;49.94
21359;BME280;13506;50.852;20.632;2022-10-28T10:53:22;99150.47;;;24.82;51.34
21359;BME280;13506;50.852;20.632;2022-10-28T10:55:54;99145.09;;;24.39;52.95
21359;BME280;13506;50.852;20.632;2022-10-28T10:58:26;99138.72;;;23.80;54.58
21359;BME280;13506;50.852;20.632;2022-10-28T11:00:56;99147.06;;;23.49;55.30
21359;BME280;13506;50.852;20.632;2022-10-28T11:03:28;99143.50;;;23.23;56.78
21359;BME280;13506;50.852;20.632;2022-10-28T11:05:59;99149.50;;;22.97;57.64
21359;BME280;13506;50.852;20.632;2022-10-28T11:08:35;99143.44;;;22.77;57.97
21359;BME280;13506;50.852;20.632;2022-10-28T11:11:12;99132.50;;;22.62;59.96
21359;BME280;13506;50.852;20.632;2022-10-28T11:13:41;99139.47;;;22.63;59.41
21359;BME280;13506;50.852;20.632;2022-10-28T11:16:18;99137.31;;;22.49;61.65
21359;BME280;13506;50.852;20.632;2022-10-28T11:18:48;99135.53;;;22.40;61.82
21359;BME280;13506;50.852;20.632;2022-10-28T11:21:46;99132.44;;;22.44;61.83
21359;BME280;13506;50.852;20.632;2022-10-28T11:24:50;99130.38;;;22.66;61.95
21359;BME280;13506;50.852;20.632;2022-10-28T11:27:32;99124.38;;;23.01;61.14
21359;BME280;13506;50.852;20.632;2022-10-28T11:30:02;99125.00;;;23.31;62.75
21359;BME280;13506;50.852;20.632;2022-10-28T11:32:51;99114.97;;;23.25;61.04
21359;BME280;13506;50.852;20.632;2022-10-28T11:35:55;99124.53;;;23.53;60.61
21359;BME280;13506;50.852;20.632;2022-10-28T11:38:36;99123.03;;;23.33;61.34
21359;BME280;13506;50.852;20.632;2022-10-28T11:41:21;99107.63;;;23.54;60.60
21359;BME280;13506;50.852;20.632;2022-10-28T11:43:52;99104.34;;;23.61;60.49
21359;BME280;13506;50.852;20.632;2022-10-28T11:46:34;99109.56;;;23.70;60.00
21359;BME280;13506;50.852;20.632;2022-10-28T11:49:25;99100.59;;;23.71;59.93
21359;BME280;13506;50.852;20.632;2022-10-28T11:52:04;99100.91;;;23.68;59.98
21359;BME280;13506;50.852;20.632;2022-10-28T11:54:46;99098.88;;;23.44;60.90
21359;BME280;13506;50.852;20.632;2022-10-28T11:57:26;99094.63;;;23.51;60.86
21359;BME280;13506;50.852;20.632;2022-10-28T12:00:32;99093.56;;;23.44;61.58
21359;BME280;13506;50.852;20.632;2022-10-28T12:03:29;99099.41;;;23.30;62.20
21359;BME280;13506;50.852;20.632;2022-10-28T12:06:10;99093.44;;;23.28;61.92
21359;BME280;13506;50.852;20.632;2022-10-28T12:08:52;99084.00;;;23.15;62.38
21359;BME280;13506;50.852;20.632;2022-10-28T12:11:38;99097.59;;;23.12;62.83
21359;BME280;13506;50.852;20.632;2022-10-28T12:14:20;99099.03;;;23.07;63.60
21359;BME280;13506;50.852;20.632;2022-10-28T12:16:54;99093.03;;;23.05;63.87
21359;BME280;13506;50.852;20.632;2022-10-28T12:19:28;99096.72;;;22.94;65.04
21359;BME280;13506;50.852;20.632;2022-10-28T12:22:03;99098.91;;;22.98;64.51
21359;BME280;13506;50.852;20.632;2022-10-28T12:24:35;99090.44;;;22.95;64.81
21359;BME280;13506;50.852;20.632;2022-10-28T12:27:11;99092.97;;;23.14;64.50
21359;BME280;13506;50.852;20.632;2022-10-28T12:29:45;99089.41;;;23.24;64.27
21359;BME280;13506;50.852;20.632;2022-10-28T12:32:20;99085.16;;;23.31;63.66
21359;BME280;13506;50.852;20.632;2022-10-28T12:34:54;99086.47;;;23.27;64.40
21359;BME280;13506;50.852;20.632;2022-10-28T12:37:32;99088.44;;;23.25;63.99
21359;BME280;13506;50.852;20.632;2022-10-28T12:40:10;99081.16;;;23.27;64.04
21359;BME280;13506;50.852;20.632;2022-10-28T12:42:44;99071.69;;;23.24;64.77
21359;BME280;13506;50.852;20.632;2022-10-28T12:45:17;99080.16;;;23.28;64.31
21359;BME280;13506;50.852;20.632;2022-10-28T12:47:48;99069.31;;;23.39;63.45
21359;BME280;13506;50.852;20.632;2022-10-28T12:50:26;99066.81;;;23.37;63.51
21359;BME280;13506;50.852;20.632;2022-10-28T12:53:15;99065.66;;;23.40;63.28
21359;BME280;13506;50.852;20.632;2022-10-28T12:55:49;99062.31;;;23.38;63.35
21359;BME280;13506;50.852;20.632;2022-10-28T12:58:23;99066.25;;;23.34;63.72
21359;BME280;13506;50.852;20.632;2022-10-28T13:00:56;99066.09;;;23.17;64.41
21359;BME280;13506;50.852;20.632;2022-10-28T13:03:26;99078.00;;;23.13;64.26
21359;BME280;13506;50.852;20.632;2022-10-28T13:06:08;99067.25;;;23.15;63.63
21359;BME280;13506;50.852;20.632;2022-10-28T13:09:14;99073.63;;;23.04;63.98
21359;BME280;13506;50.852;20.632;2022-10-28T13:12:26;99072.38;;;22.98;64.06
21359;BME280;13506;50.852;20.632;2022-10-28T13:15:35;99074.41;;;22.87;64.10
21359;BME280;13506;50.852;20.632;2022-10-28T13:18:38;99069.19;;;22.95;64.01